sensor_id;sensor_type;location;lat;lon;timestamp;pressure;altitude;pressure_sealevel;temperature;humidity
68859;BME280;55864;49.238;8.092;2023-11-18T00:01:42;100321.56;;;8.43;84.94
68859;BME280;55864;49.238;8.092;2023-11-18T00:03:42;100323.56;;;8.39;85.01
68859;BME280;55864;49.238;8.092;2023-11-18T00:05:44;100312.56;;;8.47;84.56
68859;BME280;55864;49.238;8.092;2023-11-18T00:07:45;100319.50;;;8.35;84.97
68859;BME280;55864;49.238;8.092;2023-11-18T00:09:45;100329.22;;;8.33;84.69
68859;BME280;55864;49.238;8.092;2023-11-18T00:11:46;100325.97;;;8.42;84.61
68859;BME280;55864;49.238;8.092;2023-11-18T00:13:46;100332.47;;;8.37;84.43
68859;BME280;55864;49.238;8.092;2023-11-18T00:15:47;100323.88;;;8.35;84.55
68859;BME280;55864;49.238;8.092;2023-11-18T00:17:47;100321.19;;;8.36;84.26
68859;BME280;55864;49.238;8.092;2023-11-18T00:19:48;100327.22;;;8.37;84.45
68859;BME280;55864;49.238;8.092;2023-11-18T00:21:50;100323.44;;;8.53;84.00
68859;BME280;55864;49.238;8.092;2023-11-18T00:23:50;100329.31;;;8.57;83.58
68859;BME280;55864;49.238;8.092;2023-11-18T00:25:51;100327.22;;;8.49;84.84
68859;BME280;55864;49.238;8.092;2023-11-18T00:27:51;100325.03;;;8.43;85.48
68859;BME280;55864;49.238;8.092;2023-11-18T00:29:52;100324.19;;;8.43;84.49
68859;BME280;55864;49.238;8.092;2023-11-18T00:31:53;100322.00;;;8.49;83.90
68859;BME280;55864;49.238;8.092;2023-11-18T00:33:56;100317.03;;;8.57;84.53
68859;BME280;55864;49.238;8.092;2023-11-18T00:35:59;100314.09;;;8.62;83.54
68859;BME280;55864;49.238;8.092;2023-11-18T00:38:00;100311.78;;;8.57;82.81
68859;BME280;55864;49.238;8.092;2023-11-18T00:40:01;100307.03;;;8.39;84.46
68859;BME280;55864;49.238;8.092;2023-11-18T00:42:02;100302.88;;;8.36;85.73
68859;BME280;55864;49.238;8.092;2023-11-18T00:44:03;100302.53;;;8.41;84.56
68859;BME280;55864;49.238;8.092;2023-11-18T00:46:03;100295.16;;;8.46;84.63
68859;BME280;55864;49.238;8.092;2023-11-18T00:48:04;100298.19;;;8.52;84.43
68859;BME280;55864;49.238;8.092;2023-11-18T00:50:06;100296.97;;;8.45;83.87
68859;BME280;55864;49.238;8.092;2023-11-18T00:52:06;100299.78;;;8.55;83.17
68859;BME280;55864;49.238;8.092;2023-11-18T00:54:08;100304.41;;;8.51;83.79
68859;BME280;55864;49.238;8.092;2023-11-18T00:56:13;100311.41;;;8.38;85.63
68859;BME280;55864;49.238;8.092;2023-11-18T00:58:13;100314.56;;;8.43;84.07
68859;BME280;55864;49.238;8.092;2023-11-18T01:00:15;100323.25;;;8.31;85.55
68859;BME280;55864;49.238;8.092;2023-11-18T01:02:15;100319.06;;;8.41;85.84
68859;BME280;55864;49.238;8.092;2023-11-18T01:04:16;100325.16;;;8.42;85.34
68859;BME280;55864;49.238;8.092;2023-11-18T01:06:16;100317.81;;;8.47;84.93
68859;BME280;55864;49.238;8.092;2023-11-18T01:08:17;100323.53;;;8.52;84.26
68859;BME280;55864;49.238;8.092;2023-11-18T01:10:19;100322.63;;;8.40;84.29
68859;BME280;55864;49.238;8.092;2023-11-18T01:12:19;100327.88;;;8.28;82.97
68859;BME280;55864;49.238;8.092;2023-11-18T01:14:20;100324.41;;;8.40;83.66
68859;BME280;55864;49.238;8.092;2023-11-18T01:16:20;100327.97;;;8.01;84.42
68859;BME280;55864;49.238;8.092;2023-11-18T01:18:21;100329.88;;;8.12;83.09
68859;BME280;55864;49.238;8.092;2023-11-18T01:20:22;100328.47;;;7.94;82.91
68859;BME280;55864;49.238;8.092;2023-11-18T01:22:23;100331.31;;;8.03;83.96
68859;BME280;55864;49.238;8.092;2023-11-18T01:24:24;100325.75;;;7.95;84.91
68859;BME280;55864;49.238;8.092;2023-11-18T01:26:26;100324.69;;;7.73;85.07
68859;BME280;55864;49.238;8.092;2023-11-18T01:28:26;100320.63;;;7.69;85.35
68859;BME280;55864;49.238;8.092;2023-11-18T01:30:27;100311.00;;;7.82;85.00
68859;BME280;55864;49.238;8.092;2023-11-18T01:32:30;100315.28;;;7.95;86.43
68859;BME280;55864;49.238;8.092;2023-11-18T01:34:30;100313.72;;;8.05;86.46
68859;BME280;55864;49.238;8.092;2023-11-18T01:36:32;100301.09;;;8.12;85.79
68859;BME280;55864;49.238;8.092;2023-11-18T01:38:35;100310.47;;;8.14;86.96
68859;BME280;55864;49.238;8.092;2023-11-18T01:40:36;100301.91;;;8.12;86.08
68859;BME280;55864;49.238;8.092;2023-11-18T01:42:37;100307.13;;;8.12;85.88
68859;BME280;55864;49.238;8.092;2023-11-18T01:44:38;100308.41;;;8.19;86.18
68859;BME280;55864;49.238;8.092;2023-11-18T01:46:40;100314.69;;;8.04;85.60
68859;BME280;55864;49.238;8.092;2023-11-18T01:48:41;100316.66;;;8.13;85.76
68859;BME280;55864;49.238;8.092;2023-11-18T01:50:42;100318.84;;;8.07;85.54
68859;BME280;55864;49.238;8.092;2023-11-18T01:52:44;100323.06;;;8.09;85.10
68859;BME280;55864;49.238;8.092;2023-11-18T01:54:45;100322.81;;;8.12;84.61
68859;BME280;55864;49.238;8.092;2023-11-18T01:56:49;100308.59;;;8.16;85.04
68859;BME280;55864;49.238;8.092;2023-11-18T01:58:52;100310.38;;;8.16;83.88
68859;BME280;55864;49.238;8.092;2023-11-18T02:00:53;100314.88;;;8.14;85.01
68859;BME280;55864;49.238;8.092;2023-11-18T02:02:53;100317.59;;;8.00;84.73
68859;BME280;55864;49.238;8.092;2023-11-18T02:04:54;100317.63;;;7.87;84.58
68859;BME280;55864;49.238;8.092;2023-11-18T02:06:54;100326.09;;;7.91;85.01
68859;BME280;55864;49.238;8.092;2023-11-18T02:08:55;100328.47;;;7.94;85.23
68859;BME280;55864;49.238;8.092;2023-11-18T02:10:59;100324.41;;;7.90;84.59
68859;BME280;55864;49.238;8.092;2023-11-18T02:13:06;100326.16;;;7.89;85.40
68859;BME280;55864;49.238;8.092;2023-11-18T02:15:13;100328.59;;;7.92;84.44
68859;BME280;55864;49.238;8.092;2023-11-18T02:17:18;100323.66;;;7.88;84.17
68859;BME280;55864;49.238;8.092;2023-11-18T02:19:20;100330.03;;;7.84;84.10
68859;BME280;55864;49.238;8.092;2023-11-18T02:21:21;100327.75;;;7.79;83.82
68859;BME280;55864;49.238;8.092;2023-11-18T02:23:23;100324.06;;;7.82;83.75
68859;BME280;55864;49.238;8.092;2023-11-18T02:25:24;100327.94;;;7.76;83.34
68859;BME280;55864;49.238;8.092;2023-11-18T02:27:26;100334.34;;;7.72;84.04
68859;BME280;55864;49.238;8.092;2023-11-18T02:29:29;100324.28;;;7.66;84.27
68859;BME280;55864;49.238;8.092;2023-11-18T02:31:34;100333.06;;;7.65;83.82
68859;BME280;55864;49.238;8.092;2023-11-18T02:33:36;100327.72;;;7.67;83.16
68859;BME280;55864;49.238;8.092;2023-11-18T02:35:44;100329.59;;;7.64;83.32
68859;BME280;55864;49.238;8.092;2023-11-18T02:37:47;100326.22;;;7.50;82.64
68859;BME280;55864;49.238;8.092;2023-11-18T02:39:53;100328.72;;;7.39;81.44
68859;BME280;55864;49.238;8.092;2023-11-18T02:41:55;100324.00;;;7.31;81.42
68859;BME280;55864;49.238;8.092;2023-11-18T02:43:59;100328.63;;;7.14;82.10
68859;BME280;55864;49.238;8.092;2023-11-18T02:46:00;100326.25;;;7.11;82.03
68859;BME280;55864;49.238;8.092;2023-11-18T02:48:01;100328.31;;;7.06;80.58
68859;BME280;55864;49.238;8.092;2023-11-18T02:50:02;100317.25;;;6.88;81.25
68859;BME280;55864;49.238;8.092;2023-11-18T02:52:03;100313.69;;;6.62;82.34
68859;BME280;55864;49.238;8.092;2023-11-18T02:54:04;100320.06;;;6.58;82.86
68859;BME280;55864;49.238;8.092;2023-11-18T02:56:07;100321.00;;;6.43;84.11
68859;BME280;55864;49.238;8.092;2023-11-18T02:58:08;100312.91;;;6.34;84.94
68859;BME280;55864;49.238;8.092;2023-11-18T03:00:11;100317.94;;;6.09;86.18
68859;BME280;55864;49.238;8.092;2023-11-18T03:02:12;100313.75;;;5.62;89.55
68859;BME280;55864;49.238;8.092;2023-11-18T03:04:13;100308.81;;;6.02;86.85
68859;BME280;55864;49.238;8.092;2023-11-18T03:06:13;100312.44;;;6.27;87.54
68859;BME280;55864;49.238;8.092;2023-11-18T03:08:14;100313.00;;;6.18;86.43
68859;BME280;55864;49.238;8.092;2023-11-18T03:10:14;100305.66;;;6.11;87.62
68859;BME280;55864;49.238;8.092;2023-11-18T03:12:15;100296.13;;;6.24;87.61
68859;BME280;55864;49.238;8.092;2023-11-18T03:14:15;100302.97;;;6.67;86.78
68859;BME280;55864;49.238;8.092;2023-11-18T03:16:17;100304.44;;;6.71;85.68
68859;BME280;55864;49.238;8.092;2023-11-18T03:18:18;100307.66;;;6.89;85.31
68859;BME280;55864;49.238;8.092;2023-11-18T03:20:22;100314.66;;;6.88;84.60
68859;BME280;55864;49.238;8.092;2023-11-18T03:22:22;100318.59;;;6.81;84.45
68859;BME280;55864;49.238;8.092;2023-11-18T03:24:23;100328.78;;;6.57;85.09
68859;BME280;55864;49.238;8.092;2023-11-18T03:26:23;100332.91;;;6.61;85.74
68859;BME280;55864;49.238;8.092;2023-11-18T03:28:24;100328.72;;;6.45;86.67
68859;BME280;55864;49.238;8.092;2023-11-18T03:30:25;100323.81;;;6.81;85.94
68859;BME280;55864;49.238;8.092;2023-11-18T03:32:26;100328.69;;;6.59;84.98
68859;BME280;55864;49.238;8.092;2023-11-18T03:34:27;100321.59;;;6.61;85.39
68859;BME280;55864;49.238;8.092;2023-11-18T03:36:27;100319.16;;;6.72;84.80
68859;BME280;55864;49.238;8.092;2023-11-18T03:38:28;100314.69;;;6.05;87.70
68859;BME280;55864;49.238;8.092;2023-11-18T03:40:29;100315.78;;;6.43;86.18
68859;BME280;55864;49.238;8.092;2023-11-18T03:42:29;100314.84;;;6.58;84.78
68859;BME280;55864;49.238;8.092;2023-11-18T03:44:30;100315.47;;;6.62;84.51
68859;BME280;55864;49.238;8.092;2023-11-18T03:46:30;100310.53;;;6.57;85.01
68859;BME280;55864;49.238;8.092;2023-11-18T03:48:32;100315.38;;;6.63;84.40
68859;BME280;55864;49.238;8.092;2023-11-18T03:50:33;100316.28;;;6.62;84.54
68859;BME280;55864;49.238;8.092;2023-11-18T03:52:33;100315.22;;;6.38;87.15
68859;BME280;55864;49.238;8.092;2023-11-18T03:54:34;100317.25;;;6.61;85.86
68859;BME280;55864;49.238;8.092;2023-11-18T03:56:34;100319.56;;;6.66;85.09
68859;BME280;55864;49.238;8.092;2023-11-18T03:58:35;100318.75;;;6.23;87.99
68859;BME280;55864;49.238;8.092;2023-11-18T04:00:35;100322.03;;;5.85;90.23
68859;BME280;55864;49.238;8.092;2023-11-18T04:02:38;100325.28;;;6.16;89.50
68859;BME280;55864;49.238;8.092;2023-11-18T04:04:40;100324.09;;;6.22;88.58
68859;BME280;55864;49.238;8.092;2023-11-18T04:06:41;100332.34;;;6.00;89.63
68859;BME280;55864;49.238;8.092;2023-11-18T04:08:43;100322.69;;;5.88;90.80
68859;BME280;55864;49.238;8.092;2023-11-18T04:10:44;100325.28;;;6.16;88.93
68859;BME280;55864;49.238;8.092;2023-11-18T04:12:45;100334.06;;;6.29;87.99
68859;BME280;55864;49.238;8.092;2023-11-18T04:14:45;100326.69;;;6.08;89.08
68859;BME280;55864;49.238;8.092;2023-11-18T04:16:46;100332.72;;;6.36;88.13
68859;BME280;55864;49.238;8.092;2023-11-18T04:18:46;100320.25;;;6.27;87.27
68859;BME280;55864;49.238;8.092;2023-11-18T04:20:48;100321.19;;;6.12;88.92
68859;BME280;55864;49.238;8.092;2023-11-18T04:22:49;100306.47;;;5.97;89.76
68859;BME280;55864;49.238;8.092;2023-11-18T04:24:49;100310.59;;;5.71;91.66
68859;BME280;55864;49.238;8.092;2023-11-18T04:26:50;100311.78;;;5.22;94.50
68859;BME280;55864;49.238;8.092;2023-11-18T04:28:50;100321.81;;;4.99;97.08
68859;BME280;55864;49.238;8.092;2023-11-18T04:30:51;100314.84;;;4.99;98.30
68859;BME280;55864;49.238;8.092;2023-11-18T04:32:51;100332.31;;;5.13;99.55
68859;BME280;55864;49.238;8.092;2023-11-18T04:34:52;100324.28;;;5.31;96.97
68859;BME280;55864;49.238;8.092;2023-11-18T04:36:54;100321.94;;;5.27;97.67
68859;BME280;55864;49.238;8.092;2023-11-18T04:38:54;100321.47;;;5.20;98.03
68859;BME280;55864;49.238;8.092;2023-11-18T04:40:55;100323.13;;;5.21;99.26
68859;BME280;55864;49.238;8.092;2023-11-18T04:42:56;100321.28;;;5.23;97.94
68859;BME280;55864;49.238;8.092;2023-11-18T04:44:57;100325.84;;;5.04;98.12
68859;BME280;55864;49.238;8.092;2023-11-18T04:46:57;100312.34;;;5.27;98.62
68859;BME280;55864;49.238;8.092;2023-11-18T04:48:58;100312.28;;;5.13;98.25
68859;BME280;55864;49.238;8.092;2023-11-18T04:50:59;100316.81;;;5.25;96.59
68859;BME280;55864;49.238;8.092;2023-11-18T04:53:04;100309.94;;;5.54;95.37
68859;BME280;55864;49.238;8.092;2023-11-18T04:55:05;100307.78;;;6.04;92.10
68859;BME280;55864;49.238;8.092;2023-11-18T04:57:05;100310.50;;;6.17;89.64
68859;BME280;55864;49.238;8.092;2023-11-18T04:59:06;100311.75;;;6.38;89.09
68859;BME280;55864;49.238;8.092;2023-11-18T05:01:06;100311.59;;;6.27;88.51
68859;BME280;55864;49.238;8.092;2023-11-18T05:03:07;100309.84;;;5.99;89.77
68859;BME280;55864;49.238;8.092;2023-11-18T05:05:08;100308.41;;;5.50;93.47
68859;BME280;55864;49.238;8.092;2023-11-18T05:07:08;100316.94;;;5.38;94.63
68859;BME280;55864;49.238;8.092;2023-11-18T05:09:10;100314.09;;;5.13;96.06
68859;BME280;55864;49.238;8.092;2023-11-18T05:11:11;100316.44;;;5.61;95.37
68859;BME280;55864;49.238;8.092;2023-11-18T05:13:14;100311.94;;;5.93;91.55
68859;BME280;55864;49.238;8.092;2023-11-18T05:15:14;100310.75;;;5.98;90.24
68859;BME280;55864;49.238;8.092;2023-11-18T05:17:15;100311.47;;;6.28;90.01
68859;BME280;55864;49.238;8.092;2023-11-18T05:19:16;100314.47;;;6.36;88.81
68859;BME280;55864;49.238;8.092;2023-11-18T05:21:16;100313.28;;;6.28;88.49
68859;BME280;55864;49.238;8.092;2023-11-18T05:23:17;100308.59;;;6.33;87.44
68859;BME280;55864;49.238;8.092;2023-11-18T05:25:19;100321.75;;;6.31;87.37
68859;BME280;55864;49.238;8.092;2023-11-18T05:27:19;100318.03;;;6.35;86.96
68859;BME280;55864;49.238;8.092;2023-11-18T05:29:20;100322.66;;;6.30;87.38
68859;BME280;55864;49.238;8.092;2023-11-18T05:31:20;100323.03;;;5.96;89.23
68859;BME280;55864;49.238;8.092;2023-11-18T05:33:21;100312.81;;;6.07;89.47
68859;BME280;55864;49.238;8.092;2023-11-18T05:35:21;100317.38;;;5.90;90.17
68859;BME280;55864;49.238;8.092;2023-11-18T05:37:22;100313.13;;;5.73;91.64
68859;BME280;55864;49.238;8.092;2023-11-18T05:39:22;100307.16;;;5.27;94.46
68859;BME280;55864;49.238;8.092;2023-11-18T05:41:24;100301.63;;;5.18;97.44
68859;BME280;55864;49.238;8.092;2023-11-18T05:43:26;100296.28;;;5.35;96.38
68859;BME280;55864;49.238;8.092;2023-11-18T05:45:26;100302.84;;;5.26;95.80
68859;BME280;55864;49.238;8.092;2023-11-18T05:47:27;100299.19;;;5.44;95.80
68859;BME280;55864;49.238;8.092;2023-11-18T05:49:27;100294.53;;;5.49;95.30
68859;BME280;55864;49.238;8.092;2023-11-18T05:51:28;100292.09;;;5.62;93.96
68859;BME280;55864;49.238;8.092;2023-11-18T05:53:28;100289.38;;;5.63;93.11
68859;BME280;55864;49.238;8.092;2023-11-18T05:55:31;100288.53;;;5.63;93.33
68859;BME280;55864;49.238;8.092;2023-11-18T05:57:32;100287.13;;;5.71;93.43
68859;BME280;55864;49.238;8.092;2023-11-18T05:59:33;100285.06;;;5.92;91.94
68859;BME280;55864;49.238;8.092;2023-11-18T06:01:33;100288.19;;;5.69;93.20
68859;BME280;55864;49.238;8.092;2023-11-18T06:03:34;100288.13;;;5.41;94.44
68859;BME280;55864;49.238;8.092;2023-11-18T06:05:41;100291.00;;;5.07;97.58
68859;BME280;55864;49.238;8.092;2023-11-18T06:07:41;100293.69;;;5.35;97.84
68859;BME280;55864;49.238;8.092;2023-11-18T06:09:43;100296.19;;;5.36;94.94
68859;BME280;55864;49.238;8.092;2023-11-18T06:11:44;100301.53;;;5.19;98.52
68859;BME280;55864;49.238;8.092;2023-11-18T06:13:49;100301.44;;;5.21;97.93
68859;BME280;55864;49.238;8.092;2023-11-18T06:15:50;100303.28;;;5.19;98.05
68859;BME280;55864;49.238;8.092;2023-11-18T06:17:50;100300.22;;;5.12;99.20
68859;BME280;55864;49.238;8.092;2023-11-18T06:19:51;100300.56;;;5.65;96.24
68859;BME280;55864;49.238;8.092;2023-11-18T06:21:51;100305.53;;;5.84;93.30
68859;BME280;55864;49.238;8.092;2023-11-18T06:23:52;100304.97;;;5.93;92.21
68859;BME280;55864;49.238;8.092;2023-11-18T06:25:53;100298.50;;;5.70;93.57
68859;BME280;55864;49.238;8.092;2023-11-18T06:27:53;100305.00;;;5.34;97.12
68859;BME280;55864;49.238;8.092;2023-11-18T06:29:55;100304.44;;;5.29;96.71
68859;BME280;55864;49.238;8.092;2023-11-18T06:31:56;100302.16;;;5.38;96.78
68859;BME280;55864;49.238;8.092;2023-11-18T06:33:56;100297.00;;;5.07;99.08
68859;BME280;55864;49.238;8.092;2023-11-18T06:36:00;100293.84;;;5.32;98.90
68859;BME280;55864;49.238;8.092;2023-11-18T06:38:00;100288.19;;;5.10;98.91
68859;BME280;55864;49.238;8.092;2023-11-18T06:40:01;100289.59;;;4.86;100.00
68859;BME280;55864;49.238;8.092;2023-11-18T06:42:01;100276.44;;;5.18;100.00
68859;BME280;55864;49.238;8.092;2023-11-18T06:44:05;100280.91;;;5.30;100.00
68859;BME280;55864;49.238;8.092;2023-11-18T06:46:07;100288.94;;;5.41;99.30
68859;BME280;55864;49.238;8.092;2023-11-18T06:48:08;100291.53;;;5.41;98.39
68859;BME280;55864;49.238;8.092;2023-11-18T06:50:09;100291.34;;;5.30;97.32
68859;BME280;55864;49.238;8.092;2023-11-18T06:52:09;100296.63;;;5.29;98.92
68859;BME280;55864;49.238;8.092;2023-11-18T06:54:10;100303.03;;;5.23;100.00
68859;BME280;55864;49.238;8.092;2023-11-18T06:56:10;100304.44;;;4.84;99.50
68859;BME280;55864;49.238;8.092;2023-11-18T06:58:11;100307.63;;;4.89;99.94
68859;BME280;55864;49.238;8.092;2023-11-18T07:00:15;100308.75;;;4.69;98.85
68859;BME280;55864;49.238;8.092;2023-11-18T07:02:17;100314.59;;;4.41;100.00
68859;BME280;55864;49.238;8.092;2023-11-18T07:04:17;100319.78;;;4.10;100.00
68859;BME280;55864;49.238;8.092;2023-11-18T07:06:18;100317.25;;;4.24;100.00
68859;BME280;55864;49.238;8.092;2023-11-18T07:08:19;100313.50;;;4.14;100.00
68859;BME280;55864;49.238;8.092;2023-11-18T07:10:19;100314.56;;;4.10;100.00
68859;BME280;55864;49.238;8.092;2023-11-18T07:12:20;100316.63;;;4.36;100.00
68859;BME280;55864;49.238;8.092;2023-11-18T07:14:20;100323.59;;;4.51;100.00
68859;BME280;55864;49.238;8.092;2023-11-18T07:16:21;100322.13;;;4.30;100.00
68859;BME280;55864;49.238;8.092;2023-11-18T07:18:23;100333.00;;;4.54;100.00
68859;BME280;55864;49.238;8.092;2023-11-18T07:20:23;100335.19;;;4.46;100.00
68859;BME280;55864;49.238;8.092;2023-11-18T07:22:24;100334.66;;;4.55;100.00
68859;BME280;55864;49.238;8.092;2023-11-18T07:24:24;100329.38;;;4.56;100.00
68859;BME280;55864;49.238;8.092;2023-11-18T07:26:25;100316.28;;;4.42;100.00
68859;BME280;55864;49.238;8.092;2023-11-18T07:28:25;100305.06;;;4.57;100.00
68859;BME280;55864;49.238;8.092;2023-11-18T07:30:26;100313.44;;;4.47;100.00
68859;BME280;55864;49.238;8.092;2023-11-18T07:32:26;100305.06;;;4.57;100.00
68859;BME280;55864;49.238;8.092;2023-11-18T07:34:28;100311.59;;;4.96;100.00
68859;BME280;55864;49.238;8.092;2023-11-18T07:36:29;100313.59;;;4.91;100.00
68859;BME280;55864;49.238;8.092;2023-11-18T07:38:29;100312.91;;;5.03;100.00
68859;BME280;55864;49.238;8.092;2023-11-18T07:40:30;100302.09;;;5.24;100.00
68859;BME280;55864;49.238;8.092;2023-11-18T07:42:31;100305.50;;;5.40;100.00
68859;BME280;55864;49.238;8.092;2023-11-18T07:44:31;100313.56;;;5.22;100.00
68859;BME280;55864;49.238;8.092;2023-11-18T07:46:32;100325.59;;;5.38;100.00
68859;BME280;55864;49.238;8.092;2023-11-18T07:48:32;100324.09;;;5.34;100.00
68859;BME280;55864;49.238;8.092;2023-11-18T07:50:35;100324.06;;;5.64;100.00
68859;BME280;55864;49.238;8.092;2023-11-18T07:52:35;100313.94;;;5.59;100.00
68859;BME280;55864;49.238;8.092;2023-11-18T07:54:36;100312.25;;;5.29;100.00
68859;BME280;55864;49.238;8.092;2023-11-18T07:56:36;100314.53;;;5.35;100.00
68859;BME280;55864;49.238;8.092;2023-11-18T07:58:37;100324.06;;;5.50;100.00
68859;BME280;55864;49.238;8.092;2023-11-18T08:00:38;100331.16;;;5.32;100.00
68859;BME280;55864;49.238;8.092;2023-11-18T08:02:38;100334.13;;;5.56;100.00
68859;BME280;55864;49.238;8.092;2023-11-18T08:04:39;100328.16;;;5.84;100.00
68859;BME280;55864;49.238;8.092;2023-11-18T08:06:41;100322.88;;;5.99;99.55
68859;BME280;55864;49.238;8.092;2023-11-18T08:08:41;100315.16;;;5.98;100.00
68859;BME280;55864;49.238;8.092;2023-11-18T08:10:43;100310.75;;;5.84;100.00
68859;BME280;55864;49.238;8.092;2023-11-18T08:12:44;100312.47;;;5.40;100.00
68859;BME280;55864;49.238;8.092;2023-11-18T08:14:44;100302.84;;;5.86;100.00
68859;BME280;55864;49.238;8.092;2023-11-18T08:16:45;100297.34;;;6.04;100.00
68859;BME280;55864;49.238;8.092;2023-11-18T08:18:45;100297.72;;;6.26;100.00
68859;BME280;55864;49.238;8.092;2023-11-18T08:20:46;100294.72;;;6.32;100.00
68859;BME280;55864;49.238;8.092;2023-11-18T08:22:48;100294.53;;;5.93;100.00
68859;BME280;55864;49.238;8.092;2023-11-18T08:24:48;100297.25;;;6.06;100.00
68859;BME280;55864;49.238;8.092;2023-11-18T08:26:49;100300.88;;;6.31;100.00
68859;BME280;55864;49.238;8.092;2023-11-18T08:28:50;100299.34;;;6.55;99.11
68859;BME280;55864;49.238;8.092;2023-11-18T08:32:53;100298.47;;;6.69;96.08
68859;BME280;55864;49.238;8.092;2023-11-18T08:34:53;100295.91;;;6.82;95.18
68859;BME280;55864;49.238;8.092;2023-11-18T08:36:54;100290.59;;;6.56;97.68
68859;BME280;55864;49.238;8.092;2023-11-18T08:38:56;100281.38;;;6.78;97.22
68859;BME280;55864;49.238;8.092;2023-11-18T08:40:56;100283.41;;;6.46;98.01
68859;BME280;55864;49.238;8.092;2023-11-18T08:42:57;100290.41;;;6.45;98.96
68859;BME280;55864;49.238;8.092;2023-11-18T08:44:57;100286.03;;;6.60;98.13
68859;BME280;55864;49.238;8.092;2023-11-18T08:46:58;100281.03;;;6.01;99.51
68859;BME280;55864;49.238;8.092;2023-11-18T08:48:58;100283.91;;;5.82;100.00
68859;BME280;55864;49.238;8.092;2023-11-18T08:50:59;100284.81;;;5.81;100.00
68859;BME280;55864;49.238;8.092;2023-11-18T08:53:00;100288.63;;;5.61;100.00
68859;BME280;55864;49.238;8.092;2023-11-18T08:55:02;100293.63;;;6.08;100.00
68859;BME280;55864;49.238;8.092;2023-11-18T08:57:04;100290.53;;;6.16;100.00
68859;BME280;55864;49.238;8.092;2023-11-18T08:59:04;100290.19;;;5.94;100.00
68859;BME280;55864;49.238;8.092;2023-11-18T09:01:05;100284.81;;;5.81;100.00
68859;BME280;55864;49.238;8.092;2023-11-18T09:03:06;100273.03;;;6.18;100.00
68859;BME280;55864;49.238;8.092;2023-11-18T09:05:07;100281.44;;;6.09;100.00
68859;BME280;55864;49.238;8.092;2023-11-18T09:07:10;100275.53;;;6.19;100.00
68859;BME280;55864;49.238;8.092;2023-11-18T09:09:11;100272.00;;;6.20;100.00
68859;BME280;55864;49.238;8.092;2023-11-18T09:11:13;100271.09;;;6.07;100.00
68859;BME280;55864;49.238;8.092;2023-11-18T09:13:14;100270.69;;;5.71;100.00
68859;BME280;55864;49.238;8.092;2023-11-18T09:15:15;100282.41;;;5.78;100.00
68859;BME280;55864;49.238;8.092;2023-11-18T09:17:15;100284.03;;;5.95;100.00
68859;BME280;55864;49.238;8.092;2023-11-18T09:19:19;100283.03;;;6.11;100.00
68859;BME280;55864;49.238;8.092;2023-11-18T09:21:19;100284.00;;;6.23;98.64
68859;BME280;55864;49.238;8.092;2023-11-18T09:23:21;100285.50;;;6.27;97.97
68859;BME280;55864;49.238;8.092;2023-11-18T09:25:22;100284.00;;;6.23;97.82
68859;BME280;55864;49.238;8.092;2023-11-18T09:27:23;100284.47;;;6.70;96.06
68859;BME280;55864;49.238;8.092;2023-11-18T09:29:24;100295.75;;;6.85;94.14
68859;BME280;55864;49.238;8.092;2023-11-18T09:31:24;100291.25;;;6.87;93.80
68859;BME280;55864;49.238;8.092;2023-11-18T09:33:26;100303.41;;;7.00;93.13
68859;BME280;55864;49.238;8.092;2023-11-18T09:35:27;100289.91;;;6.94;91.74
68859;BME280;55864;49.238;8.092;2023-11-18T09:37:27;100299.47;;;6.81;93.33
68859;BME280;55864;49.238;8.092;2023-11-18T09:39:28;100302.72;;;6.84;94.07
68859;BME280;55864;49.238;8.092;2023-11-18T09:41:28;100304.84;;;6.92;92.84
68859;BME280;55864;49.238;8.092;2023-11-18T09:43:31;100304.38;;;6.58;94.38
68859;BME280;55864;49.238;8.092;2023-11-18T09:45:31;100313.13;;;6.57;95.99
68859;BME280;55864;49.238;8.092;2023-11-18T09:47:36;100309.72;;;6.84;93.50
68859;BME280;55864;49.238;8.092;2023-11-18T09:49:40;100316.25;;;6.91;93.22
68859;BME280;55864;49.238;8.092;2023-11-18T09:51:45;100314.56;;;6.90;92.83
68859;BME280;55864;49.238;8.092;2023-11-18T09:53:49;100319.16;;;6.72;93.93
68859;BME280;55864;49.238;8.092;2023-11-18T09:55:54;100325.44;;;6.70;94.69
68859;BME280;55864;49.238;8.092;2023-11-18T09:58:01;100323.19;;;6.63;94.23
68859;BME280;55864;49.238;8.092;2023-11-18T10:00:06;100305.31;;;6.98;94.39
68859;BME280;55864;49.238;8.092;2023-11-18T10:02:07;100299.72;;;7.17;94.57
68859;BME280;55864;49.238;8.092;2023-11-18T10:04:08;100305.19;;;7.39;93.01
68859;BME280;55864;49.238;8.092;2023-11-18T10:06:09;100303.31;;;7.02;92.21
68859;BME280;55864;49.238;8.092;2023-11-18T10:08:09;100305.00;;;7.03;93.70
68859;BME280;55864;49.238;8.092;2023-11-18T10:10:10;100299.13;;;6.73;93.67
68859;BME280;55864;49.238;8.092;2023-11-18T10:12:12;100298.72;;;6.79;94.15
68859;BME280;55864;49.238;8.092;2023-11-18T10:14:13;100289.66;;;7.11;92.36
68859;BME280;55864;49.238;8.092;2023-11-18T10:16:17;100292.38;;;6.83;92.76
68859;BME280;55864;49.238;8.092;2023-11-18T10:18:18;100291.38;;;7.24;92.53
68859;BME280;55864;49.238;8.092;2023-11-18T10:20:18;100300.19;;;7.48;91.25
68859;BME280;55864;49.238;8.092;2023-11-18T10:22:23;100305.09;;;7.01;91.43
68859;BME280;55864;49.238;8.092;2023-11-18T10:24:24;100297.97;;;7.30;91.70
68859;BME280;55864;49.238;8.092;2023-11-18T10:26:25;100294.13;;;7.48;91.42
68859;BME280;55864;49.238;8.092;2023-11-18T10:28:30;100298.50;;;6.96;91.39
68859;BME280;55864;49.238;8.092;2023-11-18T10:30:31;100289.50;;;7.26;91.16
68859;BME280;55864;49.238;8.092;2023-11-18T10:32:33;100296.00;;;7.46;89.82
68859;BME280;55864;49.238;8.092;2023-11-18T10:34:34;100296.63;;;7.37;90.40
68859;BME280;55864;49.238;8.092;2023-11-18T10:36:35;100294.13;;;7.35;90.92
68859;BME280;55864;49.238;8.092;2023-11-18T10:38:39;100287.63;;;7.28;90.63
68859;BME280;55864;49.238;8.092;2023-11-18T10:40:41;100285.69;;;7.05;91.85
68859;BME280;55864;49.238;8.092;2023-11-18T10:42:41;100278.53;;;6.95;92.83